sensor_id;sensor_type;location;lat;lon;timestamp;P1;durP1;ratioP1;P2;durP2;ratioP2
18336;SDS011;9294;51.106;7.028;2022-08-14T00:01:31;3.47;;;3.35;;
18336;SDS011;9294;51.106;7.028;2022-08-14T00:03:58;3.65;;;3.53;;
18336;SDS011;9294;51.106;7.028;2022-08-14T00:06:25;3.60;;;3.38;;
18336;SDS011;9294;51.106;7.028;2022-08-14T00:08:53;3.20;;;3.10;;
18336;SDS011;9294;51.106;7.028;2022-08-14T00:11:20;3.47;;;3.28;;
18336;SDS011;9294;51.106;7.028;2022-08-14T00:13:47;3.40;;;3.30;;
18336;SDS011;9294;51.106;7.028;2022-08-14T00:16:14;3.42;;;3.33;;
18336;SDS011;9294;51.106;7.028;2022-08-14T00:18:41;3.28;;;3.17;;
18336;SDS011;9294;51.106;7.028;2022-08-14T00:21:08;3.65;;;3.53;;
18336;SDS011;9294;51.106;7.028;2022-08-14T00:23:35;3.65;;;3.45;;
18336;SDS011;9294;51.106;7.028;2022-08-14T00:26:04;3.20;;;3.10;;
18336;SDS011;9294;51.106;7.028;2022-08-14T00:28:31;3.20;;;3.10;;
18336;SDS011;9294;51.106;7.028;2022-08-14T00:30:58;3.78;;;3.58;;
18336;SDS011;9294;51.106;7.028;2022-08-14T00:33:25;3.40;;;3.30;;
18336;SDS011;9294;51.106;7.028;2022-08-14T00:35:53;3.50;;;3.40;;
18336;SDS011;9294;51.106;7.028;2022-08-14T00:38:20;3.58;;;3.38;;
18336;SDS011;9294;51.106;7.028;2022-08-14T00:40:48;3.90;;;3.70;;
18336;SDS011;9294;51.106;7.028;2022-08-14T00:43:17;3.20;;;3.10;;
18336;SDS011;9294;51.106;7.028;2022-08-14T00:45:43;3.47;;;3.38;;
18336;SDS011;9294;51.106;7.028;2022-08-14T00:48:11;3.75;;;3.58;;
18336;SDS011;9294;51.106;7.028;2022-08-14T00:50:42;3.38;;;3.17;;
18336;SDS011;9294;51.106;7.028;2022-08-14T00:55:37;3.50;;;3.40;;
18336;SDS011;9294;51.106;7.028;2022-08-14T00:58:05;3.47;;;3.28;;
18336;SDS011;9294;51.106;7.028;2022-08-14T01:00:51;3.60;;;3.50;;
18336;SDS011;9294;51.106;7.028;2022-08-14T01:03:18;3.97;;;3.78;;
18336;SDS011;9294;51.106;7.028;2022-08-14T01:05:48;3.45;;;3.35;;
18336;SDS011;9294;51.106;7.028;2022-08-14T01:08:17;4.00;;;3.80;;
18336;SDS011;9294;51.106;7.028;2022-08-14T01:10:45;3.65;;;3.45;;
18336;SDS011;9294;51.106;7.028;2022-08-14T01:13:16;3.65;;;3.55;;
18336;SDS011;9294;51.106;7.028;2022-08-14T01:15:45;3.53;;;3.42;;
18336;SDS011;9294;51.106;7.028;2022-08-14T01:18:15;4.10;;;3.90;;
18336;SDS011;9294;51.106;7.028;2022-08-14T01:20:59;3.58;;;3.47;;
18336;SDS011;9294;51.106;7.028;2022-08-14T01:23:32;3.67;;;3.58;;
18336;SDS011;9294;51.106;7.028;2022-08-14T01:26:00;3.88;;;3.78;;
18336;SDS011;9294;51.106;7.028;2022-08-14T01:28:28;4.00;;;3.70;;
18336;SDS011;9294;51.106;7.028;2022-08-14T01:31:02;3.90;;;3.70;;
18336;SDS011;9294;51.106;7.028;2022-08-14T01:33:32;4.15;;;3.95;;
18336;SDS011;9294;51.106;7.028;2022-08-14T01:36:05;3.92;;;3.72;;
18336;SDS011;9294;51.106;7.028;2022-08-14T01:38:34;4.35;;;4.15;;
18336;SDS011;9294;51.106;7.028;2022-08-14T01:41:04;3.65;;;3.55;;
18336;SDS011;9294;51.106;7.028;2022-08-14T01:43:31;3.90;;;3.80;;
18336;SDS011;9294;51.106;7.028;2022-08-14T01:46:02;3.88;;;3.67;;
18336;SDS011;9294;51.106;7.028;2022-08-14T01:48:35;4.00;;;3.80;;
18336;SDS011;9294;51.106;7.028;2022-08-14T01:51:02;3.83;;;3.63;;
18336;SDS011;9294;51.106;7.028;2022-08-14T01:53:29;3.97;;;3.72;;
18336;SDS011;9294;51.106;7.028;2022-08-14T01:55:58;4.20;;;3.90;;
18336;SDS011;9294;51.106;7.028;2022-08-14T01:58:27;4.20;;;4.00;;
18336;SDS011;9294;51.106;7.028;2022-08-14T02:00:54;3.92;;;3.72;;
18336;SDS011;9294;51.106;7.028;2022-08-14T02:03:22;3.85;;;3.75;;
18336;SDS011;9294;51.106;7.028;2022-08-14T02:05:50;4.43;;;4.22;;
18336;SDS011;9294;51.106;7.028;2022-08-14T02:08:22;4.38;;;4.18;;
18336;SDS011;9294;51.106;7.028;2022-08-14T02:10:54;4.05;;;3.85;;
18336;SDS011;9294;51.106;7.028;2022-08-14T02:13:37;3.58;;;3.45;;
18336;SDS011;9294;51.106;7.028;2022-08-14T02:16:05;4.20;;;4.00;;
18336;SDS011;9294;51.106;7.028;2022-08-14T02:18:32;3.85;;;3.75;;
18336;SDS011;9294;51.106;7.028;2022-08-14T02:21:00;4.35;;;4.05;;
18336;SDS011;9294;51.106;7.028;2022-08-14T02:23:27;4.35;;;4.10;;
18336;SDS011;9294;51.106;7.028;2022-08-14T02:25:54;3.60;;;3.47;;
18336;SDS011;9294;51.106;7.028;2022-08-14T02:28:21;3.95;;;3.85;;
18336;SDS011;9294;51.106;7.028;2022-08-14T02:30:50;4.20;;;4.00;;
18336;SDS011;9294;51.106;7.028;2022-08-14T02:33:16;4.38;;;4.18;;
18336;SDS011;9294;51.106;7.028;2022-08-14T02:35:43;4.25;;;4.05;;
18336;SDS011;9294;51.106;7.028;2022-08-14T02:38:10;3.97;;;3.88;;
18336;SDS011;9294;51.106;7.028;2022-08-14T02:40:37;4.05;;;3.90;;
18336;SDS011;9294;51.106;7.028;2022-08-14T02:43:04;3.85;;;3.75;;
18336;SDS011;9294;51.106;7.028;2022-08-14T02:45:31;4.30;;;4.10;;
18336;SDS011;9294;51.106;7.028;2022-08-14T02:48:00;4.15;;;3.97;;
18336;SDS011;9294;51.106;7.028;2022-08-14T02:50:27;4.53;;;4.32;;
18336;SDS011;9294;51.106;7.028;2022-08-14T02:52:54;3.90;;;3.80;;
18336;SDS011;9294;51.106;7.028;2022-08-14T02:55:21;4.10;;;3.90;;
18336;SDS011;9294;51.106;7.028;2022-08-14T02:57:48;4.22;;;4.03;;
18336;SDS011;9294;51.106;7.028;2022-08-14T03:00:16;5.20;;;4.97;;
18336;SDS011;9294;51.106;7.028;2022-08-14T03:02:45;5.68;;;5.38;;
18336;SDS011;9294;51.106;7.028;2022-08-14T03:05:16;4.68;;;4.47;;
18336;SDS011;9294;51.106;7.028;2022-08-14T03:07:43;4.93;;;4.72;;
18336;SDS011;9294;51.106;7.028;2022-08-14T03:10:10;5.13;;;4.82;;
18336;SDS011;9294;51.106;7.028;2022-08-14T03:12:36;4.47;;;4.28;;
18336;SDS011;9294;51.106;7.028;2022-08-14T03:15:04;4.55;;;4.25;;
18336;SDS011;9294;51.106;7.028;2022-08-14T03:17:37;4.22;;;3.92;;
18336;SDS011;9294;51.106;7.028;2022-08-14T03:20:06;4.60;;;4.40;;
18336;SDS011;9294;51.106;7.028;2022-08-14T03:22:36;4.68;;;4.47;;
18336;SDS011;9294;51.106;7.028;2022-08-14T03:25:04;4.50;;;4.20;;
18336;SDS011;9294;51.106;7.028;2022-08-14T03:27:31;4.88;;;4.68;;
18336;SDS011;9294;51.106;7.028;2022-08-14T03:29:58;5.03;;;4.82;;
18336;SDS011;9294;51.106;7.028;2022-08-14T03:32:27;4.65;;;4.45;;
18336;SDS011;9294;51.106;7.028;2022-08-14T03:34:57;4.93;;;4.72;;
18336;SDS011;9294;51.106;7.028;2022-08-14T03:37:24;4.72;;;4.45;;
18336;SDS011;9294;51.106;7.028;2022-08-14T03:39:52;4.50;;;4.30;;
18336;SDS011;9294;51.106;7.028;2022-08-14T03:42:19;4.72;;;4.53;;
18336;SDS011;9294;51.106;7.028;2022-08-14T03:44:49;4.90;;;4.70;;
18336;SDS011;9294;51.106;7.028;2022-08-14T03:47:16;4.55;;;4.25;;
18336;SDS011;9294;51.106;7.028;2022-08-14T03:49:44;4.05;;;3.95;;
18336;SDS011;9294;51.106;7.028;2022-08-14T03:52:12;5.25;;;4.85;;
18336;SDS011;9294;51.106;7.028;2022-08-14T03:54:39;4.38;;;4.18;;
18336;SDS011;9294;51.106;7.028;2022-08-14T03:57:08;4.97;;;4.78;;
18336;SDS011;9294;51.106;7.028;2022-08-14T03:59:35;4.88;;;4.68;;
18336;SDS011;9294;51.106;7.028;2022-08-14T04:02:02;4.60;;;4.40;;
18336;SDS011;9294;51.106;7.028;2022-08-14T04:04:29;4.70;;;4.50;;
18336;SDS011;9294;51.106;7.028;2022-08-14T04:06:56;4.70;;;4.50;;
18336;SDS011;9294;51.106;7.028;2022-08-14T04:09:24;4.50;;;4.30;;
18336;SDS011;9294;51.106;7.028;2022-08-14T04:11:51;4.40;;;4.22;;
18336;SDS011;9294;51.106;7.028;2022-08-14T04:14:19;4.90;;;4.70;;
18336;SDS011;9294;51.106;7.028;2022-08-14T04:16:46;4.45;;;4.25;;
18336;SDS011;9294;51.106;7.028;2022-08-14T04:19:13;4.68;;;4.47;;
18336;SDS011;9294;51.106;7.028;2022-08-14T04:21:42;5.20;;;4.85;;
18336;SDS011;9294;51.106;7.028;2022-08-14T04:24:09;4.82;;;4.63;;
18336;SDS011;9294;51.106;7.028;2022-08-14T04:26:38;5.20;;;5.00;;
18336;SDS011;9294;51.106;7.028;2022-08-14T04:29:05;4.97;;;4.70;;
18336;SDS011;9294;51.106;7.028;2022-08-14T04:31:34;5.30;;;5.05;;
18336;SDS011;9294;51.106;7.028;2022-08-14T04:34:02;4.75;;;4.55;;
18336;SDS011;9294;51.106;7.028;2022-08-14T04:36:29;4.80;;;4.60;;
18336;SDS011;9294;51.106;7.028;2022-08-14T04:39:16;5.53;;;5.22;;
18336;SDS011;9294;51.106;7.028;2022-08-14T04:42:01;5.10;;;4.90;;
18336;SDS011;9294;51.106;7.028;2022-08-14T04:44:45;4.63;;;4.43;;
18336;SDS011;9294;51.106;7.028;2022-08-14T04:47:13;5.25;;;4.97;;
18336;SDS011;9294;51.106;7.028;2022-08-14T04:50:12;5.03;;;4.82;;
18336;SDS011;9294;51.106;7.028;2022-08-14T04:52:39;4.50;;;4.30;;
18336;SDS011;9294;51.106;7.028;2022-08-14T04:55:06;4.57;;;4.38;;
18336;SDS011;9294;51.106;7.028;2022-08-14T04:57:36;5.88;;;5.57;;
18336;SDS011;9294;51.106;7.028;2022-08-14T05:00:04;5.07;;;4.85;;
18336;SDS011;9294;51.106;7.028;2022-08-14T05:02:33;5.38;;;5.07;;
18336;SDS011;9294;51.106;7.028;2022-08-14T05:05:00;5.05;;;4.75;;
18336;SDS011;9294;51.106;7.028;2022-08-14T05:07:27;4.82;;;4.63;;
18336;SDS011;9294;51.106;7.028;2022-08-14T05:09:55;4.93;;;4.72;;
18336;SDS011;9294;51.106;7.028;2022-08-14T05:12:23;4.90;;;4.70;;
18336;SDS011;9294;51.106;7.028;2022-08-14T05:14:50;5.15;;;4.95;;
18336;SDS011;9294;51.106;7.028;2022-08-14T05:17:17;5.10;;;4.90;;
18336;SDS011;9294;51.106;7.028;2022-08-14T05:19:49;4.63;;;4.43;;
18336;SDS011;9294;51.106;7.028;2022-08-14T05:22:17;5.60;;;5.32;;
18336;SDS011;9294;51.106;7.028;2022-08-14T05:24:44;5.18;;;4.97;;
18336;SDS011;9294;51.106;7.028;2022-08-14T05:27:12;6.13;;;5.75;;
18336;SDS011;9294;51.106;7.028;2022-08-14T05:29:38;5.20;;;4.97;;
18336;SDS011;9294;51.106;7.028;2022-08-14T05:32:08;5.15;;;4.95;;
18336;SDS011;9294;51.106;7.028;2022-08-14T05:34:35;5.82;;;5.53;;
18336;SDS011;9294;51.106;7.028;2022-08-14T05:37:03;5.63;;;5.40;;
18336;SDS011;9294;51.106;7.028;2022-08-14T05:39:31;5.30;;;5.07;;
18336;SDS011;9294;51.106;7.028;2022-08-14T05:41:58;5.40;;;5.20;;
18336;SDS011;9294;51.106;7.028;2022-08-14T05:44:25;5.68;;;5.38;;
18336;SDS011;9294;51.106;7.028;2022-08-14T05:46:52;5.93;;;5.63;;
18336;SDS011;9294;51.106;7.028;2022-08-14T05:49:18;4.90;;;4.70;;
18336;SDS011;9294;51.106;7.028;2022-08-14T05:51:46;5.63;;;5.32;;
18336;SDS011;9294;51.106;7.028;2022-08-14T05:54:14;5.90;;;5.60;;
18336;SDS011;9294;51.106;7.028;2022-08-14T05:56:41;5.22;;;5.03;;
18336;SDS011;9294;51.106;7.028;2022-08-14T05:59:09;5.38;;;5.18;;
18336;SDS011;9294;51.106;7.028;2022-08-14T06:01:36;5.07;;;4.88;;
18336;SDS011;9294;51.106;7.028;2022-08-14T06:04:03;5.57;;;5.38;;
18336;SDS011;9294;51.106;7.028;2022-08-14T06:06:30;5.45;;;5.15;;
18336;SDS011;9294;51.106;7.028;2022-08-14T06:08:57;5.78;;;5.47;;
18336;SDS011;9294;51.106;7.028;2022-08-14T06:11:25;5.18;;;4.97;;
18336;SDS011;9294;51.106;7.028;2022-08-14T06:13:52;5.38;;;5.15;;
18336;SDS011;9294;51.106;7.028;2022-08-14T06:16:18;6.07;;;5.78;;
18336;SDS011;9294;51.106;7.028;2022-08-14T06:18:46;5.70;;;5.40;;
18336;SDS011;9294;51.106;7.028;2022-08-14T06:21:13;6.50;;;5.90;;
18336;SDS011;9294;51.106;7.028;2022-08-14T06:23:40;7.70;;;7.28;;
18336;SDS011;9294;51.106;7.028;2022-08-14T06:26:07;8.75;;;8.15;;
18336;SDS011;9294;51.106;7.028;2022-08-14T06:28:37;8.90;;;8.30;;
18336;SDS011;9294;51.106;7.028;2022-08-14T06:31:04;9.15;;;8.35;;
18336;SDS011;9294;51.106;7.028;2022-08-14T06:33:31;10.10;;;9.30;;
18336;SDS011;9294;51.106;7.028;2022-08-14T06:35:58;9.18;;;8.57;;
18336;SDS011;9294;51.106;7.028;2022-08-14T06:38:25;9.52;;;8.63;;
18336;SDS011;9294;51.106;7.028;2022-08-14T06:40:52;9.88;;;9.07;;
18336;SDS011;9294;51.106;7.028;2022-08-14T06:43:19;11.73;;;9.65;;
18336;SDS011;9294;51.106;7.028;2022-08-14T06:45:48;10.38;;;9.57;;
18336;SDS011;9294;51.106;7.028;2022-08-14T06:48:16;10.80;;;10.07;;
18336;SDS011;9294;51.106;7.028;2022-08-14T06:50:44;10.73;;;9.82;;
18336;SDS011;9294;51.106;7.028;2022-08-14T06:53:11;10.32;;;9.63;;
18336;SDS011;9294;51.106;7.028;2022-08-14T06:55:40;10.80;;;10.00;;
18336;SDS011;9294;51.106;7.028;2022-08-14T06:58:09;10.27;;;9.38;;
18336;SDS011;9294;51.106;7.028;2022-08-14T07:00:36;11.20;;;10.30;;
18336;SDS011;9294;51.106;7.028;2022-08-14T07:03:04;11.07;;;10.27;;
18336;SDS011;9294;51.106;7.028;2022-08-14T07:05:49;9.95;;;9.25;;
18336;SDS011;9294;51.106;7.028;2022-08-14T07:08:16;11.10;;;10.20;;
18336;SDS011;9294;51.106;7.028;2022-08-14T07:10:46;9.95;;;9.25;;
18336;SDS011;9294;51.106;7.028;2022-08-14T07:13:14;10.50;;;9.80;;
18336;SDS011;9294;51.106;7.028;2022-08-14T07:15:43;10.70;;;9.80;;
18336;SDS011;9294;51.106;7.028;2022-08-14T07:18:12;10.60;;;9.85;;
18336;SDS011;9294;51.106;7.028;2022-08-14T07:20:40;10.52;;;9.57;;
18336;SDS011;9294;51.106;7.028;2022-08-14T07:23:08;10.55;;;9.85;;
18336;SDS011;9294;51.106;7.028;2022-08-14T07:25:36;10.38;;;9.68;;
18336;SDS011;9294;51.106;7.028;2022-08-14T07:28:09;10.55;;;9.82;;
18336;SDS011;9294;51.106;7.028;2022-08-14T07:30:37;9.85;;;9.15;;
18336;SDS011;9294;51.106;7.028;2022-08-14T07:33:05;10.02;;;9.32;;
18336;SDS011;9294;51.106;7.028;2022-08-14T07:35:34;10.70;;;9.90;;
18336;SDS011;9294;51.106;7.028;2022-08-14T07:38:02;10.07;;;9.25;;
18336;SDS011;9294;51.106;7.028;2022-08-14T07:40:29;10.10;;;9.20;;
18336;SDS011;9294;51.106;7.028;2022-08-14T07:42:56;10.57;;;9.68;;
18336;SDS011;9294;51.106;7.028;2022-08-14T07:45:23;10.00;;;9.30;;
18336;SDS011;9294;51.106;7.028;2022-08-14T07:47:50;11.05;;;9.52;;
18336;SDS011;9294;51.106;7.028;2022-08-14T07:50:20;10.48;;;9.57;;
18336;SDS011;9294;51.106;7.028;2022-08-14T07:52:48;10.43;;;9.75;;
18336;SDS011;9294;51.106;7.028;2022-08-14T07:55:15;9.95;;;9.32;;
18336;SDS011;9294;51.106;7.028;2022-08-14T07:57:43;10.73;;;9.75;;
18336;SDS011;9294;51.106;7.028;2022-08-14T08:00:12;9.65;;;8.95;;
18336;SDS011;9294;51.106;7.028;2022-08-14T08:02:42;10.85;;;9.90;;
18336;SDS011;9294;51.106;7.028;2022-08-14T08:05:10;10.13;;;9.32;;
18336;SDS011;9294;51.106;7.028;2022-08-14T08:07:38;10.30;;;9.60;;
18336;SDS011;9294;51.106;7.028;2022-08-14T08:10:08;10.18;;;9.55;;
18336;SDS011;9294;51.106;7.028;2022-08-14T08:12:55;9.90;;;9.27;;
18336;SDS011;9294;51.106;7.028;2022-08-14T08:15:22;10.82;;;9.98;;
18336;SDS011;9294;51.106;7.028;2022-08-14T08:17:49;9.02;;;8.45;;
18336;SDS011;9294;51.106;7.028;2022-08-14T08:20:16;10.10;;;9.30;;
18336;SDS011;9294;51.106;7.028;2022-08-14T08:22:45;10.30;;;9.60;;
18336;SDS011;9294;51.106;7.028;2022-08-14T08:25:13;10.35;;;9.55;;
18336;SDS011;9294;51.106;7.028;2022-08-14T08:27:40;10.52;;;9.70;;
18336;SDS011;9294;51.106;7.028;2022-08-14T08:30:08;10.32;;;9.63;;
18336;SDS011;9294;51.106;7.028;2022-08-14T08:32:39;9.18;;;8.57;;
18336;SDS011;9294;51.106;7.028;2022-08-14T08:35:09;10.50;;;9.57;;
18336;SDS011;9294;51.106;7.028;2022-08-14T08:37:36;10.48;;;9.55;;
18336;SDS011;9294;51.106;7.028;2022-08-14T08:40:03;10.38;;;9.45;;
18336;SDS011;9294;51.106;7.028;2022-08-14T08:42:32;10.75;;;9.85;;
18336;SDS011;9294;51.106;7.028;2022-08-14T08:44:59;11.40;;;10.38;;
18336;SDS011;9294;51.106;7.028;2022-08-14T08:47:36;10.20;;;9.50;;
18336;SDS011;9294;51.106;7.028;2022-08-14T08:50:13;10.45;;;9.35;;
18336;SDS011;9294;51.106;7.028;2022-08-14T08:52:45;10.50;;;9.80;;
18336;SDS011;9294;51.106;7.028;2022-08-14T08:55:13;11.50;;;10.63;;
18336;SDS011;9294;51.106;7.028;2022-08-14T08:57:41;10.00;;;9.20;;
18336;SDS011;9294;51.106;7.028;2022-08-14T09:00:15;10.30;;;9.65;;
18336;SDS011;9294;51.106;7.028;2022-08-14T09:02:51;10.48;;;9.63;;
18336;SDS011;9294;51.106;7.028;2022-08-14T09:05:18;9.70;;;9.10;;
18336;SDS011;9294;51.106;7.028;2022-08-14T09:07:45;13.32;;;9.38;;
18336;SDS011;9294;51.106;7.028;2022-08-14T09:10:12;9.95;;;9.25;;
18336;SDS011;9294;51.106;7.028;2022-08-14T09:12:39;9.68;;;8.98;;
18336;SDS011;9294;51.106;7.028;2022-08-14T09:15:08;18.08;;;9.32;;
18336;SDS011;9294;51.106;7.028;2022-08-14T09:17:35;9.38;;;8.70;;
18336;SDS011;9294;51.106;7.028;2022-08-14T09:20:03;10.43;;;9.52;;
18336;SDS011;9294;51.106;7.028;2022-08-14T09:22:30;10.60;;;9.80;;
18336;SDS011;9294;51.106;7.028;2022-08-14T09:24:57;9.52;;;8.65;;
18336;SDS011;9294;51.106;7.028;2022-08-14T09:27:25;10.68;;;9.57;;
18336;SDS011;9294;51.106;7.028;2022-08-14T09:29:52;10.50;;;9.55;;
18336;SDS011;9294;51.106;7.028;2022-08-14T09:32:22;9.85;;;9.15;;
18336;SDS011;9294;51.106;7.028;2022-08-14T09:34:56;10.05;;;9.35;;
18336;SDS011;9294;51.106;7.028;2022-08-14T09:37:30;9.05;;;8.27;;
18336;SDS011;9294;51.106;7.028;2022-08-14T09:40:03;10.02;;;9.30;;
18336;SDS011;9294;51.106;7.028;2022-08-14T09:42:34;9.57;;;8.98;;
18336;SDS011;9294;51.106;7.028;2022-08-14T09:45:13;10.52;;;9.63;;
18336;SDS011;9294;51.106;7.028;2022-08-14T09:47:47;9.77;;;9.02;;
18336;SDS011;9294;51.106;7.028;2022-08-14T09:50:19;9.32;;;8.73;;
18336;SDS011;9294;51.106;7.028;2022-08-14T09:52:48;9.65;;;8.85;;
18336;SDS011;9294;51.106;7.028;2022-08-14T09:55:17;9.70;;;9.00;;
18336;SDS011;9294;51.106;7.028;2022-08-14T09:57:44;9.30;;;8.70;;
18336;SDS011;9294;51.106;7.028;2022-08-14T10:00:12;9.27;;;8.65;;
18336;SDS011;9294;51.106;7.028;2022-08-14T10:02:51;9.32;;;8.57;;
18336;SDS011;9294;51.106;7.028;2022-08-14T10:05:28;13.52;;;9.25;;
18336;SDS011;9294;51.106;7.028;2022-08-14T10:07:57;9.82;;;9.15;;
18336;SDS011;9294;51.106;7.028;2022-08-14T10:10:26;9.23;;;8.57;;
18336;SDS011;9294;51.106;7.028;2022-08-14T10:12:54;8.90;;;8.30;;
18336;SDS011;9294;51.106;7.028;2022-08-14T10:15:21;9.40;;;8.80;;
18336;SDS011;9294;51.106;7.028;2022-08-14T10:18:01;10.20;;;9.30;;
18336;SDS011;9294;51.106;7.028;2022-08-14T10:20:33;9.05;;;8.45;;
18336;SDS011;9294;51.106;7.028;2022-08-14T10:23:09;11.23;;;9.60;;
18336;SDS011;9294;51.106;7.028;2022-08-14T10:25:40;10.82;;;9.82;;
18336;SDS011;9294;51.106;7.028;2022-08-14T10:28:08;11.80;;;10.80;;
18336;SDS011;9294;51.106;7.028;2022-08-14T10:30:39;10.60;;;9.73;;
18336;SDS011;9294;51.106;7.028;2022-08-14T10:33:08;16.90;;;11.93;;
18336;SDS011;9294;51.106;7.028;2022-08-14T10:35:39;11.55;;;10.55;;
18336;SDS011;9294;51.106;7.028;2022-08-14T10:38:07;11.23;;;10.13;;
18336;SDS011;9294;51.106;7.028;2022-08-14T10:40:35;11.77;;;10.57;;
18336;SDS011;9294;51.106;7.028;2022-08-14T10:43:02;11.73;;;10.63;;
18336;SDS011;9294;51.106;7.028;2022-08-14T10:45:30;10.98;;;10.13;;
18336;SDS011;9294;51.106;7.028;2022-08-14T10:47:57;16.38;;;10.32;;
18336;SDS011;9294;51.106;7.028;2022-08-14T10:50:30;11.18;;;10.13;;
18336;SDS011;9294;51.106;7.028;2022-08-14T10:52:58;11.57;;;10.63;;
18336;SDS011;9294;51.106;7.028;2022-08-14T10:55:33;9.93;;;8.98;;
18336;SDS011;9294;51.106;7.028;2022-08-14T10:58:03;11.18;;;9.93;;
18336;SDS011;9294;51.106;7.028;2022-08-14T11:00:35;10.95;;;9.65;;
18336;SDS011;9294;51.106;7.028;2022-08-14T11:03:03;9.70;;;8.90;;
18336;SDS011;9294;51.106;7.028;2022-08-14T11:05:38;9.93;;;9.20;;
18336;SDS011;9294;51.106;7.028;2022-08-14T11:08:06;9.93;;;9.05;;
18336;SDS011;9294;51.106;7.028;2022-08-14T11:10:41;10.52;;;9.65;;
18336;SDS011;9294;51.106;7.028;2022-08-14T11:13:14;10.10;;;9.20;;
18336;SDS011;9294;51.106;7.028;2022-08-14T11:15:42;10.60;;;9.65;;
18336;SDS011;9294;51.106;7.028;2022-08-14T11:18:10;9.95;;;9.18;;
18336;SDS011;9294;51.106;7.028;2022-08-14T11:20:40;10.35;;;9.50;;
18336;SDS011;9294;51.106;7.028;2022-08-14T11:23:13;10.07;;;9.27;;
18336;SDS011;9294;51.106;7.028;2022-08-14T11:25:43;9.57;;;8.85;;
18336;SDS011;9294;51.106;7.028;2022-08-14T11:28:11;9.85;;;8.70;;
18336;SDS011;9294;51.106;7.028;2022-08-14T11:30:39;10.23;;;9.27;;
18336;SDS011;9294;51.106;7.028;2022-08-14T11:33:08;9.40;;;8.57;;
18336;SDS011;9294;51.106;7.028;2022-08-14T11:35:36;9.85;;;9.05;;
18336;SDS011;9294;51.106;7.028;2022-08-14T11:38:05;9.93;;;9.13;;
18336;SDS011;9294;51.106;7.028;2022-08-14T11:40:35;9.00;;;8.20;;
18336;SDS011;9294;51.106;7.028;2022-08-14T11:43:03;8.70;;;8.02;;
18336;SDS011;9294;51.106;7.028;2022-08-14T11:45:32;8.18;;;7.68;;
18336;SDS011;9294;51.106;7.028;2022-08-14T11:48:00;9.80;;;9.00;;
18336;SDS011;9294;51.106;7.028;2022-08-14T11:50:28;9.85;;;8.85;;
18336;SDS011;9294;51.106;7.028;2022-08-14T11:52:56;9.93;;;9.02;;
18336;SDS011;9294;51.106;7.028;2022-08-14T11:55:25;9.00;;;8.27;;
18336;SDS011;9294;51.106;7.028;2022-08-14T11:57:58;9.20;;;8.60;;
18336;SDS011;9294;51.106;7.028;2022-08-14T12:00:26;9.75;;;8.95;;
18336;SDS011;9294;51.106;7.028;2022-08-14T12:02:55;9.52;;;8.63;;
18336;SDS011;9294;51.106;7.028;2022-08-14T12:05:29;9.48;;;8.68;;
18336;SDS011;9294;51.106;7.028;2022-08-14T12:07:57;8.57;;;7.97;;
18336;SDS011;9294;51.106;7.028;2022-08-14T12:10:26;8.60;;;7.97;;
18336;SDS011;9294;51.106;7.028;2022-08-14T12:12:54;9.70;;;8.77;;
18336;SDS011;9294;51.106;7.028;2022-08-14T12:15:27;7.53;;;7.03;;
18336;SDS011;9294;51.106;7.028;2022-08-14T12:17:55;8.07;;;7.47;;
18336;SDS011;9294;51.106;7.028;2022-08-14T12:20:27;8.77;;;7.97;;
18336;SDS011;9294;51.106;7.028;2022-08-14T12:22:55;8.93;;;8.23;;
18336;SDS011;9294;51.106;7.028;2022-08-14T12:25:22;9.20;;;8.43;;
18336;SDS011;9294;51.106;7.028;2022-08-14T12:27:52;8.75;;;8.05;;
18336;SDS011;9294;51.106;7.028;2022-08-14T12:30:28;7.97;;;7.38;;
18336;SDS011;9294;51.106;7.028;2022-08-14T12:32:56;8.88;;;8.10;;
18336;SDS011;9294;51.106;7.028;2022-08-14T12:35:34;9.05;;;8.23;;
18336;SDS011;9294;51.106;7.028;2022-08-14T12:38:01;8.70;;;8.00;;
18336;SDS011;9294;51.106;7.028;2022-08-14T12:40:28;8.65;;;8.05;;
18336;SDS011;9294;51.106;7.028;2022-08-14T12:42:59;8.48;;;7.80;;
18336;SDS011;9294;51.106;7.028;2022-08-14T12:45:30;8.93;;;8.23;;
18336;SDS011;9294;51.106;7.028;2022-08-14T12:47:59;8.00;;;7.50;;
18336;SDS011;9294;51.106;7.028;2022-08-14T12:50:34;8.82;;;8.10;;
18336;SDS011;9294;51.106;7.028;2022-08-14T12:53:01;8.88;;;8.27;;
18336;SDS011;9294;51.106;7.028;2022-08-14T12:55:28;9.02;;;8.27;;
18336;SDS011;9294;51.106;7.028;2022-08-14T12:58:01;8.30;;;7.70;;
18336;SDS011;9294;51.106;7.028;2022-08-14T13:00:31;8.48;;;7.90;;
18336;SDS011;9294;51.106;7.028;2022-08-14T13:02:58;8.27;;;7.57;;
18336;SDS011;9294;51.106;7.028;2022-08-14T13:05:26;8.23;;;7.63;;
18336;SDS011;9294;51.106;7.028;2022-08-14T13:07:54;8.32;;;7.72;;
18336;SDS011;9294;51.106;7.028;2022-08-14T13:10:22;9.50;;;8.70;;
18336;SDS011;9294;51.106;7.028;2022-08-14T13:12:50;8.77;;;7.97;;
18336;SDS011;9294;51.106;7.028;2022-08-14T13:15:21;8.23;;;7.50;;
18336;SDS011;9294;51.106;7.028;2022-08-14T13:17:49;8.45;;;7.85;;
18336;SDS011;9294;51.106;7.028;2022-08-14T13:20:18;8.57;;;7.88;;
18336;SDS011;9294;51.106;7.028;2022-08-14T13:22:45;8.75;;;8.07;;
18336;SDS011;9294;51.106;7.028;2022-08-14T13:25:13;7.72;;;7.00;;
18336;SDS011;9294;51.106;7.028;2022-08-14T13:27:41;7.85;;;7.35;;
18336;SDS011;9294;51.106;7.028;2022-08-14T13:30:10;8.00;;;7.50;;
18336;SDS011;9294;51.106;7.028;2022-08-14T13:32:39;7.85;;;7.25;;
18336;SDS011;9294;51.106;7.028;2022-08-14T13:35:08;8.25;;;7.68;;
18336;SDS011;9294;51.106;7.028;2022-08-14T13:37:39;8.75;;;8.15;;
18336;SDS011;9294;51.106;7.028;2022-08-14T13:40:07;7.70;;;7.18;;
18336;SDS011;9294;51.106;7.028;2022-08-14T13:42:34;8.13;;;7.53;;
18336;SDS011;9294;51.106;7.028;2022-08-14T13:45:03;8.50;;;7.80;;
18336;SDS011;9294;51.106;7.028;2022-08-14T13:47:31;7.68;;;7.18;;
18336;SDS011;9294;51.106;7.028;2022-08-14T13:50:01;8.13;;;7.53;;
18336;SDS011;9294;51.106;7.028;2022-08-14T13:52:30;7.88;;;7.25;;
18336;SDS011;9294;51.106;7.028;2022-08-14T13:55:00;7.95;;;7.28;;
18336;SDS011;9294;51.106;7.028;2022-08-14T13:57:28;8.63;;;8.02;;
18336;SDS011;9294;51.106;7.028;2022-08-14T13:59:57;7.50;;;6.88;;
18336;SDS011;9294;51.106;7.028;2022-08-14T14:02:26;13.60;;;7.43;;
18336;SDS011;9294;51.106;7.028;2022-08-14T14:04:56;8.40;;;7.70;;
18336;SDS011;9294;51.106;7.028;2022-08-14T14:07:28;7.72;;;7.03;;
18336;SDS011;9294;51.106;7.028;2022-08-14T14:09:56;7.75;;;7.15;;
18336;SDS011;9294;51.106;7.028;2022-08-14T14:12:25;7.60;;;6.97;;
18336;SDS011;9294;51.106;7.028;2022-08-14T14:14:53;7.90;;;7.40;;
18336;SDS011;9294;51.106;7.028;2022-08-14T14:17:20;7.65;;;7.15;;
18336;SDS011;9294;51.106;7.028;2022-08-14T14:19:49;7.72;;;7.22;;
18336;SDS011;9294;51.106;7.028;2022-08-14T14:22:18;7.70;;;7.10;;
18336;SDS011;9294;51.106;7.028;2022-08-14T14:24:45;7.05;;;6.55;;
18336;SDS011;9294;51.106;7.028;2022-08-14T14:27:12;7.53;;;7.03;;
18336;SDS011;9294;51.106;7.028;2022-08-14T14:29:41;6.93;;;6.35;;
18336;SDS011;9294;51.106;7.028;2022-08-14T14:32:11;7.25;;;6.65;;
18336;SDS011;9294;51.106;7.028;2022-08-14T14:34:38;7.72;;;7.22;;
18336;SDS011;9294;51.106;7.028;2022-08-14T14:37:07;7.55;;;7.05;;
18336;SDS011;9294;51.106;7.028;2022-08-14T14:39:37;7.10;;;6.50;;
18336;SDS011;9294;51.106;7.028;2022-08-14T14:42:05;8.50;;;7.38;;
18336;SDS011;9294;51.106;7.028;2022-08-14T14:44:34;7.40;;;6.90;;
18336;SDS011;9294;51.106;7.028;2022-08-14T14:47:06;6.82;;;6.25;;
18336;SDS011;9294;51.106;7.028;2022-08-14T14:49:34;7.03;;;6.57;;
18336;SDS011;9294;51.106;7.028;2022-08-14T14:52:01;7.30;;;6.80;;
18336;SDS011;9294;51.106;7.028;2022-08-14T14:54:29;7.20;;;6.70;;
18336;SDS011;9294;51.106;7.028;2022-08-14T14:56:59;7.22;;;6.70;;
18336;SDS011;9294;51.106;7.028;2022-08-14T14:59:26;7.85;;;7.32;;
18336;SDS011;9294;51.106;7.028;2022-08-14T15:01:53;7.28;;;6.70;;
18336;SDS011;9294;51.106;7.028;2022-08-14T15:04:24;7.40;;;6.85;;
18336;SDS011;9294;51.106;7.028;2022-08-14T15:06:52;7.28;;;6.68;;
18336;SDS011;9294;51.106;7.028;2022-08-14T15:09:19;7.55;;;7.15;;
18336;SDS011;9294;51.106;7.028;2022-08-14T15:11:46;7.65;;;7.05;;